sensor_id;sensor_type;location;lat;lon;timestamp;temperature;humidity
15535;DHT22;7869;49.264;8.596;2022-12-29T00:01:50;7.90;99.90
15535;DHT22;7869;49.264;8.596;2022-12-29T00:04:17;8.00;99.90
15535;DHT22;7869;49.264;8.596;2022-12-29T00:06:43;8.10;99.90
15535;DHT22;7869;49.264;8.596;2022-12-29T00:09:11;8.30;99.90
15535;DHT22;7869;49.264;8.596;2022-12-29T00:11:37;8.30;99.90
15535;DHT22;7869;49.264;8.596;2022-12-29T00:14:03;8.40;99.90
15535;DHT22;7869;49.264;8.596;2022-12-29T00:16:47;8.40;99.90
15535;DHT22;7869;49.264;8.596;2022-12-29T00:19:13;8.50;99.90
15535;DHT22;7869;49.264;8.596;2022-12-29T00:21:57;8.50;99.90
15535;DHT22;7869;49.264;8.596;2022-12-29T00:24:42;8.60;99.90
15535;DHT22;7869;49.264;8.596;2022-12-29T00:27:27;8.60;99.90
15535;DHT22;7869;49.264;8.596;2022-12-29T00:30:15;8.60;99.90
15535;DHT22;7869;49.264;8.596;2022-12-29T00:32:59;8.70;99.90
15535;DHT22;7869;49.264;8.596;2022-12-29T00:35:46;8.70;99.90
15535;DHT22;7869;49.264;8.596;2022-12-29T00:38:14;8.80;99.90
15535;DHT22;7869;49.264;8.596;2022-12-29T00:40:58;8.90;99.90
15535;DHT22;7869;49.264;8.596;2022-12-29T00:43:42;9.00;99.90
15535;DHT22;7869;49.264;8.596;2022-12-29T00:46:26;9.20;99.90
15535;DHT22;7869;49.264;8.596;2022-12-29T00:48:52;9.40;99.90
15535;DHT22;7869;49.264;8.596;2022-12-29T00:51:36;9.50;99.90
15535;DHT22;7869;49.264;8.596;2022-12-29T00:54:01;9.60;99.90
15535;DHT22;7869;49.264;8.596;2022-12-29T00:56:27;9.60;99.90
15535;DHT22;7869;49.264;8.596;2022-12-29T00:58:53;9.70;99.90
15535;DHT22;7869;49.264;8.596;2022-12-29T01:01:18;9.80;99.90
15535;DHT22;7869;49.264;8.596;2022-12-29T01:03:44;9.90;99.90
15535;DHT22;7869;49.264;8.596;2022-12-29T01:06:10;10.10;99.90
15535;DHT22;7869;49.264;8.596;2022-12-29T01:08:36;10.20;99.90
15535;DHT22;7869;49.264;8.596;2022-12-29T01:11:12;10.30;99.90
15535;DHT22;7869;49.264;8.596;2022-12-29T01:13:38;10.40;99.90
15535;DHT22;7869;49.264;8.596;2022-12-29T01:16:06;10.40;99.90
15535;DHT22;7869;49.264;8.596;2022-12-29T01:18:32;10.50;99.90
15535;DHT22;7869;49.264;8.596;2022-12-29T01:20:59;10.50;99.90
15535;DHT22;7869;49.264;8.596;2022-12-29T01:23:25;10.70;99.90
15535;DHT22;7869;49.264;8.596;2022-12-29T01:25:51;10.80;99.90
15535;DHT22;7869;49.264;8.596;2022-12-29T01:28:16;10.90;99.90
15535;DHT22;7869;49.264;8.596;2022-12-29T01:30:42;11.00;99.90
15535;DHT22;7869;49.264;8.596;2022-12-29T01:33:07;11.10;99.90
15535;DHT22;7869;49.264;8.596;2022-12-29T01:35:33;11.00;99.90
15535;DHT22;7869;49.264;8.596;2022-12-29T01:37:58;11.00;99.90
15535;DHT22;7869;49.264;8.596;2022-12-29T01:40:24;11.10;99.90
15535;DHT22;7869;49.264;8.596;2022-12-29T01:42:50;11.10;99.90
15535;DHT22;7869;49.264;8.596;2022-12-29T01:45:17;11.00;99.90
15535;DHT22;7869;49.264;8.596;2022-12-29T01:47:50;11.00;99.90
15535;DHT22;7869;49.264;8.596;2022-12-29T01:50:23;10.90;99.90
15535;DHT22;7869;49.264;8.596;2022-12-29T01:53:02;10.90;99.90
15535;DHT22;7869;49.264;8.596;2022-12-29T01:55:33;10.90;99.90
15535;DHT22;7869;49.264;8.596;2022-12-29T01:58:02;11.00;99.90
15535;DHT22;7869;49.264;8.596;2022-12-29T02:00:28;11.10;99.90
15535;DHT22;7869;49.264;8.596;2022-12-29T02:02:54;11.10;99.90
15535;DHT22;7869;49.264;8.596;2022-12-29T02:05:47;11.10;99.90
15535;DHT22;7869;49.264;8.596;2022-12-29T02:08:14;11.10;99.90
15535;DHT22;7869;49.264;8.596;2022-12-29T02:10:40;11.00;99.90
15535;DHT22;7869;49.264;8.596;2022-12-29T02:13:07;10.90;99.90
15535;DHT22;7869;49.264;8.596;2022-12-29T02:23:49;10.70;99.90
15535;DHT22;7869;49.264;8.596;2022-12-29T02:29:58;10.60;99.90
15535;DHT22;7869;49.264;8.596;2022-12-29T02:32:37;10.60;99.90
15535;DHT22;7869;49.264;8.596;2022-12-29T02:35:20;10.60;99.90
15535;DHT22;7869;49.264;8.596;2022-12-29T02:38:05;10.70;99.90
15535;DHT22;7869;49.264;8.596;2022-12-29T02:52:01;10.80;99.90
15535;DHT22;7869;49.264;8.596;2022-12-29T02:54:29;10.70;99.90
15535;DHT22;7869;49.264;8.596;2022-12-29T02:59:58;10.50;99.90
15535;DHT22;7869;49.264;8.596;2022-12-29T03:11:04;10.40;99.90
15535;DHT22;7869;49.264;8.596;2022-12-29T03:13:47;10.40;99.90
15535;DHT22;7869;49.264;8.596;2022-12-29T03:16:44;10.40;99.90
15535;DHT22;7869;49.264;8.596;2022-12-29T03:22:10;10.40;99.90
15535;DHT22;7869;49.264;8.596;2022-12-29T03:25:19;10.60;99.90
15535;DHT22;7869;49.264;8.596;2022-12-29T03:27:52;10.60;99.90
15535;DHT22;7869;49.264;8.596;2022-12-29T03:30:19;10.70;99.90
15535;DHT22;7869;49.264;8.596;2022-12-29T03:32:50;10.80;99.90
15535;DHT22;7869;49.264;8.596;2022-12-29T03:35:20;10.80;99.90
15535;DHT22;7869;49.264;8.596;2022-12-29T03:38:13;10.80;99.90
15535;DHT22;7869;49.264;8.596;2022-12-29T03:40:46;10.90;99.90
15535;DHT22;7869;49.264;8.596;2022-12-29T03:43:14;10.90;99.90
15535;DHT22;7869;49.264;8.596;2022-12-29T03:45:41;10.80;99.90
15535;DHT22;7869;49.264;8.596;2022-12-29T03:48:06;10.90;99.90
15535;DHT22;7869;49.264;8.596;2022-12-29T03:50:32;10.90;99.90
15535;DHT22;7869;49.264;8.596;2022-12-29T03:52:57;10.90;99.90
15535;DHT22;7869;49.264;8.596;2022-12-29T03:55:23;10.80;99.90
15535;DHT22;7869;49.264;8.596;2022-12-29T03:57:49;10.90;99.90
15535;DHT22;7869;49.264;8.596;2022-12-29T04:00:14;10.90;99.90
15535;DHT22;7869;49.264;8.596;2022-12-29T04:02:41;10.80;99.90
15535;DHT22;7869;49.264;8.596;2022-12-29T04:05:06;10.90;99.90
15535;DHT22;7869;49.264;8.596;2022-12-29T04:07:32;10.90;99.90
15535;DHT22;7869;49.264;8.596;2022-12-29T04:09:58;11.10;99.90
15535;DHT22;7869;49.264;8.596;2022-12-29T04:12:23;11.20;99.90
15535;DHT22;7869;49.264;8.596;2022-12-29T04:14:49;11.20;99.90
15535;DHT22;7869;49.264;8.596;2022-12-29T04:17:14;11.30;99.90
15535;DHT22;7869;49.264;8.596;2022-12-29T04:19:40;11.30;99.90
15535;DHT22;7869;49.264;8.596;2022-12-29T04:22:05;11.30;99.90
15535;DHT22;7869;49.264;8.596;2022-12-29T04:24:31;11.30;99.90
15535;DHT22;7869;49.264;8.596;2022-12-29T04:26:56;11.30;99.90
15535;DHT22;7869;49.264;8.596;2022-12-29T04:29:22;11.30;99.90
15535;DHT22;7869;49.264;8.596;2022-12-29T04:31:48;11.40;99.90
15535;DHT22;7869;49.264;8.596;2022-12-29T04:34:13;11.40;99.90
15535;DHT22;7869;49.264;8.596;2022-12-29T04:36:39;11.60;99.90
15535;DHT22;7869;49.264;8.596;2022-12-29T04:39:05;11.70;99.90
15535;DHT22;7869;49.264;8.596;2022-12-29T04:41:31;11.70;99.90
15535;DHT22;7869;49.264;8.596;2022-12-29T04:43:57;11.80;99.90
15535;DHT22;7869;49.264;8.596;2022-12-29T04:46:22;11.80;99.90
15535;DHT22;7869;49.264;8.596;2022-12-29T04:48:48;11.80;99.90
15535;DHT22;7869;49.264;8.596;2022-12-29T04:51:13;11.80;99.90
15535;DHT22;7869;49.264;8.596;2022-12-29T04:53:39;11.80;99.90
15535;DHT22;7869;49.264;8.596;2022-12-29T04:56:05;11.80;99.90
15535;DHT22;7869;49.264;8.596;2022-12-29T04:58:31;11.80;99.90
15535;DHT22;7869;49.264;8.596;2022-12-29T05:00:56;11.80;99.90
15535;DHT22;7869;49.264;8.596;2022-12-29T05:03:22;11.80;99.90
15535;DHT22;7869;49.264;8.596;2022-12-29T05:05:48;11.70;99.90
15535;DHT22;7869;49.264;8.596;2022-12-29T05:08:13;11.80;99.90
15535;DHT22;7869;49.264;8.596;2022-12-29T05:10:39;11.80;99.90
15535;DHT22;7869;49.264;8.596;2022-12-29T05:13:04;11.80;99.90
15535;DHT22;7869;49.264;8.596;2022-12-29T05:15:30;11.80;99.90
15535;DHT22;7869;49.264;8.596;2022-12-29T05:17:56;11.80;99.90
15535;DHT22;7869;49.264;8.596;2022-12-29T05:20:21;11.80;99.90
15535;DHT22;7869;49.264;8.596;2022-12-29T05:22:47;11.80;99.90
15535;DHT22;7869;49.264;8.596;2022-12-29T05:25:12;11.90;99.90
15535;DHT22;7869;49.264;8.596;2022-12-29T05:27:38;11.90;99.90
15535;DHT22;7869;49.264;8.596;2022-12-29T05:30:04;11.90;99.90
15535;DHT22;7869;49.264;8.596;2022-12-29T05:32:29;11.90;99.90
15535;DHT22;7869;49.264;8.596;2022-12-29T05:34:55;11.90;99.90
15535;DHT22;7869;49.264;8.596;2022-12-29T05:37:20;11.70;99.90
15535;DHT22;7869;49.264;8.596;2022-12-29T05:39:46;11.70;99.90
15535;DHT22;7869;49.264;8.596;2022-12-29T05:42:11;11.70;99.90
15535;DHT22;7869;49.264;8.596;2022-12-29T05:44:37;11.60;99.90
15535;DHT22;7869;49.264;8.596;2022-12-29T05:47:02;11.60;99.90
15535;DHT22;7869;49.264;8.596;2022-12-29T05:49:28;11.50;99.90
15535;DHT22;7869;49.264;8.596;2022-12-29T05:51:53;11.50;99.90
15535;DHT22;7869;49.264;8.596;2022-12-29T05:54:19;11.60;99.90
15535;DHT22;7869;49.264;8.596;2022-12-29T05:56:44;11.60;99.90
15535;DHT22;7869;49.264;8.596;2022-12-29T05:59:10;11.70;99.90
15535;DHT22;7869;49.264;8.596;2022-12-29T06:01:35;11.80;99.90
15535;DHT22;7869;49.264;8.596;2022-12-29T06:04:01;11.80;99.90
15535;DHT22;7869;49.264;8.596;2022-12-29T06:06:27;11.80;99.90
15535;DHT22;7869;49.264;8.596;2022-12-29T06:08:52;11.80;99.90
15535;DHT22;7869;49.264;8.596;2022-12-29T06:11:18;11.80;99.90
15535;DHT22;7869;49.264;8.596;2022-12-29T06:13:43;11.80;99.90
15535;DHT22;7869;49.264;8.596;2022-12-29T06:16:09;11.90;99.90
15535;DHT22;7869;49.264;8.596;2022-12-29T06:18:34;11.80;99.90
15535;DHT22;7869;49.264;8.596;2022-12-29T06:21:02;11.80;99.90
15535;DHT22;7869;49.264;8.596;2022-12-29T06:23:28;11.80;99.90
15535;DHT22;7869;49.264;8.596;2022-12-29T06:25:53;11.80;99.90
15535;DHT22;7869;49.264;8.596;2022-12-29T06:28:19;11.80;99.90
15535;DHT22;7869;49.264;8.596;2022-12-29T06:30:45;11.90;99.90
15535;DHT22;7869;49.264;8.596;2022-12-29T06:33:11;11.80;99.90
15535;DHT22;7869;49.264;8.596;2022-12-29T06:35:37;11.90;99.90
15535;DHT22;7869;49.264;8.596;2022-12-29T06:38:03;11.90;99.90
15535;DHT22;7869;49.264;8.596;2022-12-29T06:40:28;11.90;99.90
15535;DHT22;7869;49.264;8.596;2022-12-29T06:42:54;11.90;99.90
15535;DHT22;7869;49.264;8.596;2022-12-29T06:45:19;12.00;99.90
15535;DHT22;7869;49.264;8.596;2022-12-29T06:47:45;12.00;99.90
15535;DHT22;7869;49.264;8.596;2022-12-29T06:50:10;12.10;99.90
15535;DHT22;7869;49.264;8.596;2022-12-29T06:52:36;12.10;99.90
15535;DHT22;7869;49.264;8.596;2022-12-29T06:55:02;12.00;99.90
15535;DHT22;7869;49.264;8.596;2022-12-29T06:57:27;12.10;99.90
15535;DHT22;7869;49.264;8.596;2022-12-29T06:59:53;12.10;99.90
15535;DHT22;7869;49.264;8.596;2022-12-29T07:02:21;12.10;99.90
15535;DHT22;7869;49.264;8.596;2022-12-29T07:04:46;12.20;99.90
15535;DHT22;7869;49.264;8.596;2022-12-29T07:07:12;12.20;99.90
15535;DHT22;7869;49.264;8.596;2022-12-29T07:09:38;12.20;99.90
15535;DHT22;7869;49.264;8.596;2022-12-29T07:12:03;12.20;99.90
15535;DHT22;7869;49.264;8.596;2022-12-29T07:14:29;12.10;99.90
15535;DHT22;7869;49.264;8.596;2022-12-29T07:16:54;12.10;99.90
15535;DHT22;7869;49.264;8.596;2022-12-29T07:19:20;12.10;99.90
15535;DHT22;7869;49.264;8.596;2022-12-29T07:21:46;12.10;99.90
15535;DHT22;7869;49.264;8.596;2022-12-29T07:24:11;12.10;99.90
15535;DHT22;7869;49.264;8.596;2022-12-29T07:26:37;12.10;99.90
15535;DHT22;7869;49.264;8.596;2022-12-29T07:29:03;12.10;99.90
15535;DHT22;7869;49.264;8.596;2022-12-29T07:31:29;12.20;99.90
15535;DHT22;7869;49.264;8.596;2022-12-29T07:33:54;12.20;99.90
15535;DHT22;7869;49.264;8.596;2022-12-29T07:36:20;12.20;99.90
15535;DHT22;7869;49.264;8.596;2022-12-29T07:38:46;12.20;99.90
15535;DHT22;7869;49.264;8.596;2022-12-29T07:41:11;12.20;99.90
15535;DHT22;7869;49.264;8.596;2022-12-29T07:43:37;12.30;99.90
15535;DHT22;7869;49.264;8.596;2022-12-29T07:46:02;12.30;99.90
15535;DHT22;7869;49.264;8.596;2022-12-29T07:48:28;12.30;99.90
15535;DHT22;7869;49.264;8.596;2022-12-29T07:50:54;12.30;99.90
15535;DHT22;7869;49.264;8.596;2022-12-29T07:53:19;12.30;99.90
15535;DHT22;7869;49.264;8.596;2022-12-29T07:55:45;12.30;99.90
15535;DHT22;7869;49.264;8.596;2022-12-29T07:58:10;12.30;99.90
15535;DHT22;7869;49.264;8.596;2022-12-29T08:00:37;12.30;99.90
15535;DHT22;7869;49.264;8.596;2022-12-29T08:03:03;12.30;99.90
15535;DHT22;7869;49.264;8.596;2022-12-29T08:05:31;12.20;99.90
15535;DHT22;7869;49.264;8.596;2022-12-29T08:07:56;12.30;99.90
15535;DHT22;7869;49.264;8.596;2022-12-29T08:10:22;12.30;99.90
15535;DHT22;7869;49.264;8.596;2022-12-29T08:12:47;12.30;99.90
15535;DHT22;7869;49.264;8.596;2022-12-29T08:15:13;12.30;99.90
15535;DHT22;7869;49.264;8.596;2022-12-29T08:17:39;12.40;99.90
15535;DHT22;7869;49.264;8.596;2022-12-29T08:20:05;12.40;99.90
15535;DHT22;7869;49.264;8.596;2022-12-29T08:22:30;12.40;99.90
15535;DHT22;7869;49.264;8.596;2022-12-29T08:24:56;12.50;99.90
15535;DHT22;7869;49.264;8.596;2022-12-29T08:27:22;12.50;99.90
15535;DHT22;7869;49.264;8.596;2022-12-29T08:29:48;12.50;99.90
15535;DHT22;7869;49.264;8.596;2022-12-29T08:32:14;12.60;99.90
15535;DHT22;7869;49.264;8.596;2022-12-29T08:34:39;12.60;99.90
15535;DHT22;7869;49.264;8.596;2022-12-29T08:37:05;12.70;99.90
15535;DHT22;7869;49.264;8.596;2022-12-29T08:39:30;12.60;99.90
15535;DHT22;7869;49.264;8.596;2022-12-29T08:41:56;12.70;99.90
15535;DHT22;7869;49.264;8.596;2022-12-29T08:44:21;12.70;99.90
15535;DHT22;7869;49.264;8.596;2022-12-29T08:46:47;12.70;99.90
15535;DHT22;7869;49.264;8.596;2022-12-29T08:49:13;12.70;99.90
15535;DHT22;7869;49.264;8.596;2022-12-29T08:51:39;12.80;99.90
15535;DHT22;7869;49.264;8.596;2022-12-29T08:54:04;12.80;99.90
15535;DHT22;7869;49.264;8.596;2022-12-29T08:56:30;12.80;99.90
15535;DHT22;7869;49.264;8.596;2022-12-29T08:58:55;12.80;99.90
15535;DHT22;7869;49.264;8.596;2022-12-29T09:01:21;12.90;99.90
15535;DHT22;7869;49.264;8.596;2022-12-29T09:03:47;12.90;99.90
15535;DHT22;7869;49.264;8.596;2022-12-29T09:06:14;12.90;99.90
15535;DHT22;7869;49.264;8.596;2022-12-29T09:08:40;12.90;99.90
15535;DHT22;7869;49.264;8.596;2022-12-29T09:11:12;12.90;99.90
15535;DHT22;7869;49.264;8.596;2022-12-29T09:13:38;12.90;99.90
15535;DHT22;7869;49.264;8.596;2022-12-29T09:16:04;12.90;99.90
15535;DHT22;7869;49.264;8.596;2022-12-29T09:18:30;13.00;99.90
15535;DHT22;7869;49.264;8.596;2022-12-29T09:20:59;13.00;99.90
15535;DHT22;7869;49.264;8.596;2022-12-29T09:23:26;13.10;99.90
15535;DHT22;7869;49.264;8.596;2022-12-29T09:25:52;13.00;99.90
15535;DHT22;7869;49.264;8.596;2022-12-29T09:28:18;13.00;99.90
15535;DHT22;7869;49.264;8.596;2022-12-29T09:30:44;12.90;99.90
15535;DHT22;7869;49.264;8.596;2022-12-29T09:33:09;12.90;99.90
15535;DHT22;7869;49.264;8.596;2022-12-29T09:35:35;12.90;99.90
15535;DHT22;7869;49.264;8.596;2022-12-29T09:38:00;12.90;99.90
15535;DHT22;7869;49.264;8.596;2022-12-29T09:40:29;12.90;99.90
15535;DHT22;7869;49.264;8.596;2022-12-29T09:45:32;12.80;99.90
15535;DHT22;7869;49.264;8.596;2022-12-29T09:47:59;12.70;99.90
15535;DHT22;7869;49.264;8.596;2022-12-29T09:50:29;12.70;99.90
15535;DHT22;7869;49.264;8.596;2022-12-29T09:53:08;12.70;99.90
15535;DHT22;7869;49.264;8.596;2022-12-29T09:55:39;12.70;99.90
15535;DHT22;7869;49.264;8.596;2022-12-29T10:01:01;12.80;99.90
15535;DHT22;7869;49.264;8.596;2022-12-29T10:03:48;12.80;99.90
15535;DHT22;7869;49.264;8.596;2022-12-29T10:06:22;12.90;99.90
15535;DHT22;7869;49.264;8.596;2022-12-29T10:11:52;12.80;99.90
15535;DHT22;7869;49.264;8.596;2022-12-29T10:22:43;12.80;99.90
15535;DHT22;7869;49.264;8.596;2022-12-29T10:25:25;12.80;99.90
15535;DHT22;7869;49.264;8.596;2022-12-29T10:27:53;12.70;99.90
15535;DHT22;7869;49.264;8.596;2022-12-29T10:30:21;12.60;99.90
15535;DHT22;7869;49.264;8.596;2022-12-29T10:33:02;12.60;99.90
15535;DHT22;7869;49.264;8.596;2022-12-29T10:35:34;12.60;99.90
15535;DHT22;7869;49.264;8.596;2022-12-29T10:38:29;12.60;99.90
15535;DHT22;7869;49.264;8.596;2022-12-29T10:41:09;12.60;99.90
15535;DHT22;7869;49.264;8.596;2022-12-29T10:43:46;12.70;99.90
15535;DHT22;7869;49.264;8.596;2022-12-29T10:46:17;12.70;99.90
15535;DHT22;7869;49.264;8.596;2022-12-29T10:48:43;12.80;99.90
15535;DHT22;7869;49.264;8.596;2022-12-29T10:51:37;12.80;99.90
15535;DHT22;7869;49.264;8.596;2022-12-29T10:56:40;12.90;99.90
15535;DHT22;7869;49.264;8.596;2022-12-29T10:59:26;12.80;99.90
15535;DHT22;7869;49.264;8.596;2022-12-29T11:07:19;12.80;99.90
15535;DHT22;7869;49.264;8.596;2022-12-29T11:09:46;12.80;99.90
15535;DHT22;7869;49.264;8.596;2022-12-29T11:12:28;12.90;99.90
15535;DHT22;7869;49.264;8.596;2022-12-29T11:15:15;12.90;99.90
15535;DHT22;7869;49.264;8.596;2022-12-29T11:17:48;13.00;99.90
15535;DHT22;7869;49.264;8.596;2022-12-29T11:20:30;13.20;99.90
15535;DHT22;7869;49.264;8.596;2022-12-29T11:22:57;13.40;99.90
15535;DHT22;7869;49.264;8.596;2022-12-29T11:25:22;13.70;99.90
15535;DHT22;7869;49.264;8.596;2022-12-29T11:28:15;13.80;99.90
15535;DHT22;7869;49.264;8.596;2022-12-29T11:30:42;13.80;99.90
15535;DHT22;7869;49.264;8.596;2022-12-29T11:33:09;13.90;99.90
15535;DHT22;7869;49.264;8.596;2022-12-29T11:35:35;14.10;99.90
15535;DHT22;7869;49.264;8.596;2022-12-29T11:38:02;14.00;99.90
15535;DHT22;7869;49.264;8.596;2022-12-29T11:40:29;14.00;99.90
15535;DHT22;7869;49.264;8.596;2022-12-29T11:43:00;14.00;99.90
15535;DHT22;7869;49.264;8.596;2022-12-29T11:45:34;14.10;99.90
15535;DHT22;7869;49.264;8.596;2022-12-29T11:50:31;14.10;99.90
15535;DHT22;7869;49.264;8.596;2022-12-29T11:53:05;14.10;99.90
15535;DHT22;7869;49.264;8.596;2022-12-29T11:55:32;13.90;99.90
15535;DHT22;7869;49.264;8.596;2022-12-29T11:58:01;13.90;99.90
15535;DHT22;7869;49.264;8.596;2022-12-29T12:00:28;14.00;99.90
15535;DHT22;7869;49.264;8.596;2022-12-29T12:03:20;14.00;99.90
15535;DHT22;7869;49.264;8.596;2022-12-29T12:05:57;14.00;99.90
15535;DHT22;7869;49.264;8.596;2022-12-29T12:08:44;13.90;99.90
15535;DHT22;7869;49.264;8.596;2022-12-29T12:11:18;13.90;99.90
15535;DHT22;7869;49.264;8.596;2022-12-29T12:16:21;13.80;99.90
15535;DHT22;7869;49.264;8.596;2022-12-29T12:18:52;13.80;99.90
15535;DHT22;7869;49.264;8.596;2022-12-29T12:21:46;13.80;99.90
15535;DHT22;7869;49.264;8.596;2022-12-29T12:24:39;13.80;99.90
15535;DHT22;7869;49.264;8.596;2022-12-29T12:27:24;13.70;99.90
15535;DHT22;7869;49.264;8.596;2022-12-29T12:30:04;13.70;99.90
15535;DHT22;7869;49.264;8.596;2022-12-29T12:35:16;13.70;99.90
15535;DHT22;7869;49.264;8.596;2022-12-29T12:55:15;13.70;99.90
15535;DHT22;7869;49.264;8.596;2022-12-29T12:57:57;13.60;99.90
15535;DHT22;7869;49.264;8.596;2022-12-29T13:00:28;13.50;99.90
15535;DHT22;7869;49.264;8.596;2022-12-29T13:11:46;13.30;99.90
15535;DHT22;7869;49.264;8.596;2022-12-29T13:25:27;12.40;99.90
15535;DHT22;7869;49.264;8.596;2022-12-29T13:28:05;12.30;99.90
15535;DHT22;7869;49.264;8.596;2022-12-29T13:30:45;12.30;99.90
15535;DHT22;7869;49.264;8.596;2022-12-29T13:35:54;12.30;99.90
15535;DHT22;7869;49.264;8.596;2022-12-29T13:39:39;12.30;99.90
15535;DHT22;7869;49.264;8.596;2022-12-29T13:41:51;12.30;99.90
15535;DHT22;7869;49.264;8.596;2022-12-29T13:44:26;12.30;99.90
15535;DHT22;7869;49.264;8.596;2022-12-29T13:46:54;12.40;99.90
15535;DHT22;7869;49.264;8.596;2022-12-29T13:49:22;12.60;99.90
15535;DHT22;7869;49.264;8.596;2022-12-29T13:52:03;12.60;99.90
15535;DHT22;7869;49.264;8.596;2022-12-29T13:57:39;12.60;99.90
15535;DHT22;7869;49.264;8.596;2022-12-29T14:00:14;12.70;99.90
15535;DHT22;7869;49.264;8.596;2022-12-29T14:07:46;12.80;99.90
15535;DHT22;7869;49.264;8.596;2022-12-29T14:13:06;12.80;99.90
15535;DHT22;7869;49.264;8.596;2022-12-29T14:15:38;12.70;99.90
15535;DHT22;7869;49.264;8.596;2022-12-29T14:18:21;12.70;99.90
15535;DHT22;7869;49.264;8.596;2022-12-29T14:23:38;12.60;99.90
15535;DHT22;7869;49.264;8.596;2022-12-29T14:28:34;12.70;99.90
15535;DHT22;7869;49.264;8.596;2022-12-29T14:31:05;12.60;99.90
15535;DHT22;7869;49.264;8.596;2022-12-29T14:33:33;12.60;99.90
15535;DHT22;7869;49.264;8.596;2022-12-29T14:36:18;12.50;99.90
15535;DHT22;7869;49.264;8.596;2022-12-29T14:38:45;12.30;99.90
15535;DHT22;7869;49.264;8.596;2022-12-29T14:46:46;11.90;99.90
15535;DHT22;7869;49.264;8.596;2022-12-29T14:49:19;11.70;99.90
15535;DHT22;7869;49.264;8.596;2022-12-29T14:51:47;11.50;99.90
15535;DHT22;7869;49.264;8.596;2022-12-29T14:57:05;11.20;99.90
15535;DHT22;7869;49.264;8.596;2022-12-29T14:59:32;11.00;99.90
15535;DHT22;7869;49.264;8.596;2022-12-29T15:02:02;10.90;99.90
15535;DHT22;7869;49.264;8.596;2022-12-29T15:04:33;10.80;99.90
15535;DHT22;7869;49.264;8.596;2022-12-29T15:07:01;10.70;99.90
15535;DHT22;7869;49.264;8.596;2022-12-29T15:09:43;10.60;99.90
15535;DHT22;7869;49.264;8.596;2022-12-29T15:12:37;10.50;99.90
15535;DHT22;7869;49.264;8.596;2022-12-29T15:17:42;10.40;99.90
15535;DHT22;7869;49.264;8.596;2022-12-29T15:22:49;10.30;99.90
15535;DHT22;7869;49.264;8.596;2022-12-29T15:25:16;10.30;99.90
15535;DHT22;7869;49.264;8.596;2022-12-29T15:27:51;10.30;99.90
15535;DHT22;7869;49.264;8.596;2022-12-29T15:30:18;10.30;99.90
15535;DHT22;7869;49.264;8.596;2022-12-29T15:32:45;10.20;99.90
15535;DHT22;7869;49.264;8.596;2022-12-29T15:35:37;10.10;99.90
15535;DHT22;7869;49.264;8.596;2022-12-29T15:38:23;10.10;99.90
15535;DHT22;7869;49.264;8.596;2022-12-29T15:41:00;10.00;99.90
15535;DHT22;7869;49.264;8.596;2022-12-29T15:46:20;9.90;99.90
15535;DHT22;7869;49.264;8.596;2022-12-29T15:48:46;9.80;99.90
15535;DHT22;7869;49.264;8.596;2022-12-29T15:51:21;9.70;99.90
15535;DHT22;7869;49.264;8.596;2022-12-29T15:53:50;9.70;99.90
15535;DHT22;7869;49.264;8.596;2022-12-29T15:56:17;9.60;99.90
15535;DHT22;7869;49.264;8.596;2022-12-29T15:58:48;9.50;99.90
15535;DHT22;7869;49.264;8.596;2022-12-29T16:01:27;9.50;99.90
15535;DHT22;7869;49.264;8.596;2022-12-29T16:03:54;9.50;99.90
15535;DHT22;7869;49.264;8.596;2022-12-29T16:06:29;9.50;99.90
15535;DHT22;7869;49.264;8.596;2022-12-29T16:09:00;9.50;99.90
15535;DHT22;7869;49.264;8.596;2022-12-29T16:11:37;9.50;99.90
15535;DHT22;7869;49.264;8.596;2022-12-29T16:14:09;9.50;99.90
15535;DHT22;7869;49.264;8.596;2022-12-29T16:16:37;9.50;99.90
15535;DHT22;7869;49.264;8.596;2022-12-29T16:19:13;9.50;99.90
15535;DHT22;7869;49.264;8.596;2022-12-29T16:21:40;9.60;99.90
15535;DHT22;7869;49.264;8.596;2022-12-29T16:24:12;9.50;99.90
15535;DHT22;7869;49.264;8.596;2022-12-29T16:26:39;9.60;99.90
15535;DHT22;7869;49.264;8.596;2022-12-29T16:29:12;9.60;99.90
15535;DHT22;7869;49.264;8.596;2022-12-29T16:31:55;9.60;99.90
15535;DHT22;7869;49.264;8.596;2022-12-29T16:34:33;9.60;99.90
15535;DHT22;7869;49.264;8.596;2022-12-29T16:37:02;9.60;99.90
15535;DHT22;7869;49.264;8.596;2022-12-29T16:39:36;9.60;99.90
15535;DHT22;7869;49.264;8.596;2022-12-29T16:47:40;9.60;99.90
15535;DHT22;7869;49.264;8.596;2022-12-29T16:50:13;9.60;99.90
15535;DHT22;7869;49.264;8.596;2022-12-29T16:52:42;9.70;99.90
15535;DHT22;7869;49.264;8.596;2022-12-29T16:55:16;9.60;99.90
15535;DHT22;7869;49.264;8.596;2022-12-29T16:57:44;9.60;99.90
15535;DHT22;7869;49.264;8.596;2022-12-29T17:00:32;9.60;99.90
15535;DHT22;7869;49.264;8.596;2022-12-29T17:03:00;9.60;99.90
15535;DHT22;7869;49.264;8.596;2022-12-29T17:05:26;9.60;99.90
15535;DHT22;7869;49.264;8.596;2022-12-29T17:07:52;9.60;99.90
15535;DHT22;7869;49.264;8.596;2022-12-29T17:10:18;9.60;99.90
15535;DHT22;7869;49.264;8.596;2022-12-29T17:12:46;9.60;99.90
15535;DHT22;7869;49.264;8.596;2022-12-29T17:15:25;9.60;99.90
15535;DHT22;7869;49.264;8.596;2022-12-29T17:17:53;9.60;99.90
15535;DHT22;7869;49.264;8.596;2022-12-29T17:20:27;9.60;99.90
15535;DHT22;7869;49.264;8.596;2022-12-29T17:22:54;9.70;99.90
15535;DHT22;7869;49.264;8.596;2022-12-29T17:25:33;9.60;99.90
15535;DHT22;7869;49.264;8.596;2022-12-29T17:28:21;9.60;99.90
15535;DHT22;7869;49.264;8.596;2022-12-29T17:30:48;9.70;99.90
15535;DHT22;7869;49.264;8.596;2022-12-29T17:33:17;9.70;99.90
15535;DHT22;7869;49.264;8.596;2022-12-29T17:35:43;9.70;99.90
15535;DHT22;7869;49.264;8.596;2022-12-29T17:38:21;9.70;99.90
15535;DHT22;7869;49.264;8.596;2022-12-29T17:40:48;9.70;99.90
15535;DHT22;7869;49.264;8.596;2022-12-29T17:43:15;9.70;99.90
15535;DHT22;7869;49.264;8.596;2022-12-29T17:45:42;9.70;99.90
15535;DHT22;7869;49.264;8.596;2022-12-29T17:48:13;9.70;99.90
15535;DHT22;7869;49.264;8.596;2022-12-29T17:50:39;9.60;99.90
15535;DHT22;7869;49.264;8.596;2022-12-29T17:53:13;9.60;99.90
15535;DHT22;7869;49.264;8.596;2022-12-29T17:55:40;9.60;99.90
15535;DHT22;7869;49.264;8.596;2022-12-29T17:58:22;9.70;99.90
15535;DHT22;7869;49.264;8.596;2022-12-29T18:00:54;9.60;99.90
15535;DHT22;7869;49.264;8.596;2022-12-29T18:03:30;9.60;99.90
15535;DHT22;7869;49.264;8.596;2022-12-29T18:05:56;9.60;99.90
15535;DHT22;7869;49.264;8.596;2022-12-29T18:08:22;9.60;99.90
15535;DHT22;7869;49.264;8.596;2022-12-29T18:10:50;9.50;99.90
15535;DHT22;7869;49.264;8.596;2022-12-29T18:15:45;9.50;99.90
15535;DHT22;7869;49.264;8.596;2022-12-29T18:18:17;9.40;99.90
15535;DHT22;7869;49.264;8.596;2022-12-29T18:20:44;9.30;99.90
15535;DHT22;7869;49.264;8.596;2022-12-29T18:28:11;9.20;99.90
15535;DHT22;7869;49.264;8.596;2022-12-29T18:30:37;9.10;99.90
15535;DHT22;7869;49.264;8.596;2022-12-29T18:33:03;9.10;99.90
15535;DHT22;7869;49.264;8.596;2022-12-29T18:35:39;9.10;99.90
15535;DHT22;7869;49.264;8.596;2022-12-29T18:38:06;9.10;99.90
15535;DHT22;7869;49.264;8.596;2022-12-29T18:40:33;9.00;99.90
15535;DHT22;7869;49.264;8.596;2022-12-29T18:42:59;9.00;99.90
15535;DHT22;7869;49.264;8.596;2022-12-29T18:45:25;8.90;99.90